Wetterdaten: Woche 26.08.13 - 01.09.13 (KW35)
Datum Zeit Temp. A. Feuchte A. Luftdruck Regen Wind Richtung Taupunkt Windchill Windben
26.08.2013 00:00 15,4 C 72 % 1016,5 hPa 0,0 l/m 6,8 km/h (2 Bft) NO 10,5 C 15,2 C 12,6 km/h (3 Bft)
26.08.2013 01:00 14,5 C 76 % 1016,8 hPa 0,0 l/m 5,7 km/h (2 Bft) NO 10,3 C 14,4 C 10,3 km/h (2 Bft)
26.08.2013 02:00 13,6 C 80 % 1016,8 hPa 0,0 l/m 6,3 km/h (2 Bft) NO 10,1 C 13,3 C 11,2 km/h (2 Bft)
26.08.2013 03:00 12,9 C 82 % 1016,9 hPa 0,0 l/m 5,9 km/h (2 Bft) NO 9,9 C 12,8 C 10,6 km/h (2 Bft)
26.08.2013 04:00 12,2 C 84 % 1016,9 hPa 0,0 l/m 5,3 km/h (1 Bft) NO 9,5 C 12,2 C 10,1 km/h (2 Bft)
26.08.2013 05:00 11,8 C 84 % 1017,1 hPa 0,0 l/m 5,6 km/h (2 Bft) NO 9,1 C 11,8 C 10,6 km/h (2 Bft)
26.08.2013 06:00 11,3 C 85 % 1017,4 hPa 0,0 l/m 5,2 km/h (1 Bft) NO 8,8 C 11,3 C 10,9 km/h (2 Bft)
26.08.2013 07:00 12,1 C 82 % 1017,8 hPa 0,0 l/m 6,8 km/h (2 Bft) NO 9,1 C 11,8 C 13,0 km/h (3 Bft)
26.08.2013 08:00 13,9 C 75 % 1018,2 hPa 0,0 l/m 7,2 km/h (2 Bft) NO 9,5 C 13,4 C 12,5 km/h (2 Bft)
26.08.2013 09:00 16,4 C 67 % 1018,6 hPa 0,0 l/m 7,9 km/h (2 Bft) O-NO 10,2 C 15,7 C 17,2 km/h (3 Bft)
26.08.2013 10:00 19,0 C 58 % 1018,6 hPa 0,0 l/m 10,1 km/h (2 Bft) NO 10,4 C 17,5 C 19,0 km/h (3 Bft)
26.08.2013 11:00 20,6 C 49 % 1018,6 hPa 0,0 l/m 12,9 km/h (3 Bft) O-NO 9,5 C 18,5 C 25,3 km/h (4 Bft)
26.08.2013 12:00 21,9 C 45 % 1018,4 hPa 0,0 l/m 12,1 km/h (2 Bft) O-NO 9,5 C 20,2 C 22,0 km/h (4 Bft)
26.08.2013 13:00 22,6 C 42 % 1018,1 hPa 0,0 l/m 12,4 km/h (2 Bft) NO 8,9 C 21,0 C 21,2 km/h (4 Bft)
26.08.2013 14:00 23,0 C 40 % 1017,9 hPa 0,0 l/m 11,7 km/h (2 Bft) NO 8,5 C 21,6 C 21,4 km/h (4 Bft)
26.08.2013 15:00 23,2 C 39 % 1017,5 hPa 0,0 l/m 10,2 km/h (2 Bft) NO 8,3 C 22,1 C 19,8 km/h (4 Bft)
26.08.2013 16:00 23,3 C 38 % 1017,4 hPa 0,0 l/m 10,4 km/h (2 Bft) NO 8,2 C 22,2 C 22,0 km/h (4 Bft)
26.08.2013 17:00 22,8 C 39 % 1017,5 hPa 0,0 l/m 9,3 km/h (2 Bft) O-NO 8,0 C 22,0 C 18,6 km/h (3 Bft)
26.08.2013 18:00 22,4 C 41 % 1017,3 hPa 0,0 l/m 7,5 km/h (2 Bft) O-NO 8,4 C 22,0 C 14,8 km/h (3 Bft)
26.08.2013 19:00 21,2 C 45 % 1017,4 hPa 0,0 l/m 5,1 km/h (1 Bft) O-NO 8,7 C 21,2 C 10,4 km/h (2 Bft)
26.08.2013 20:00 18,9 C 52 % 1017,7 hPa 0,0 l/m 3,3 km/h (1 Bft) NO 8,9 C 18,9 C 7,0 km/h (2 Bft)
26.08.2013 21:00 17,3 C 57 % 1018,1 hPa 0,0 l/m 3,6 km/h (1 Bft) NO 8,8 C 17,3 C 7,6 km/h (2 Bft)
26.08.2013 22:00 16,5 C 60 % 1018,3 hPa 0,0 l/m 3,3 km/h (1 Bft) NO 8,7 C 16,5 C 8,0 km/h (2 Bft)
26.08.2013 23:00 14,5 C 66 % 1018,4 hPa 0,0 l/m 1,2 km/h (1 Bft) NO 8,2 C 14,5 C 2,9 km/h (1 Bft)
27.08.2013 00:00 12,7 C 75 % 1018,6 hPa 0,0 l/m 2,7 km/h (1 Bft) NO 8,4 C 12,7 C 4,9 km/h (1 Bft)
27.08.2013 01:00 11,8 C 82 % 1018,5 hPa 0,0 l/m 1,6 km/h (1 Bft) N-NO 8,8 C 11,8 C 3,1 km/h (1 Bft)
27.08.2013 02:00 10,8 C 87 % 1018,3 hPa 0,0 l/m 1,2 km/h (1 Bft) N 8,6 C 10,8 C 2,1 km/h (1 Bft)
27.08.2013 03:00 9,7 C 90 % 1018,2 hPa 0,0 l/m 1,7 km/h (1 Bft) N-NO 8,1 C 9,7 C 3,3 km/h (1 Bft)
27.08.2013 04:00 9,7 C 92 % 1018,0 hPa 0,0 l/m 1,2 km/h (1 Bft) N-NO 8,5 C 9,7 C 2,9 km/h (1 Bft)
27.08.2013 05:00 9,1 C 93 % 1018,0 hPa 0,0 l/m 1,2 km/h (1 Bft) N 8,0 C 9,1 C 2,3 km/h (1 Bft)
27.08.2013 06:00 9,7 C 94 % 1018,1 hPa 0,0 l/m 2,7 km/h (1 Bft) N-NO 8,8 C 9,7 C 4,3 km/h (1 Bft)
27.08.2013 07:00 11,8 C 93 % 1018,2 hPa 0,0 l/m 3,1 km/h (1 Bft) NO 10,6 C 11,8 C 5,2 km/h (1 Bft)
27.08.2013 08:00 14,4 C 83 % 1018,2 hPa 0,0 l/m 4,0 km/h (1 Bft) O 11,6 C 14,4 C 8,0 km/h (2 Bft)
27.08.2013 09:00 17,3 C 71 % 1018,0 hPa 0,0 l/m 6,0 km/h (2 Bft) O 11,9 C 17,1 C 12,9 km/h (3 Bft)
27.08.2013 10:00 19,5 C 59 % 1017,8 hPa 0,0 l/m 9,7 km/h (2 Bft) O 11,3 C 18,3 C 20,0 km/h (4 Bft)
27.08.2013 11:00 20,0 C 54 % 1017,6 hPa 0,0 l/m 10,6 km/h (2 Bft) O 10,4 C 18,5 C 22,0 km/h (4 Bft)
27.08.2013 12:00 19,6 C 54 % 1017,3 hPa 0,0 l/m 10,1 km/h (2 Bft) O 10,0 C 18,2 C 20,6 km/h (4 Bft)
27.08.2013 13:00 20,0 C 54 % 1017,1 hPa 0,0 l/m 8,3 km/h (2 Bft) O 10,3 C 19,3 C 18,8 km/h (3 Bft)
27.08.2013 14:00 20,1 C 53 % 1016,9 hPa 0,0 l/m 8,0 km/h (2 Bft) O 10,2 C 19,5 C 16,5 km/h (3 Bft)
27.08.2013 15:00 20,2 C 51 % 1016,7 hPa 0,0 l/m 7,3 km/h (2 Bft) O 9,9 C 19,9 C 16,1 km/h (3 Bft)
27.08.2013 16:00 20,2 C 51 % 1016,5 hPa 0,0 l/m 6,9 km/h (2 Bft) O 9,9 C 20,0 C 14,2 km/h (3 Bft)
27.08.2013 17:00 20,2 C 53 % 1016,3 hPa 0,0 l/m 6,5 km/h (2 Bft) O 10,3 C 20,1 C 13,2 km/h (3 Bft)
27.08.2013 18:00 20,1 C 54 % 1016,0 hPa 0,0 l/m 4,5 km/h (1 Bft) O 10,5 C 20,1 C 9,5 km/h (2 Bft)
27.08.2013 19:00 19,1 C 60 % 1016,0 hPa 0,0 l/m 1,3 km/h (1 Bft) NO 11,1 C 19,1 C 2,5 km/h (1 Bft)
27.08.2013 20:00 15,9 C 74 % 1016,2 hPa 0,0 l/m 0,0 km/h (0 Bft) N 11,2 C 15,9 C 0,0 km/h (0 Bft)
27.08.2013 21:00 14,5 C 81 % 1016,4 hPa 0,0 l/m 0,0 km/h (0 Bft) N 11,2 C 14,5 C 0,0 km/h (0 Bft)
27.08.2013 22:00 15,0 C 78 % 1016,6 hPa 0,0 l/m 0,0 km/h (0 Bft) N 11,2 C 15,0 C 0,0 km/h (0 Bft)
27.08.2013 23:00 15,1 C 78 % 1016,7 hPa 0,0 l/m 1,5 km/h (1 Bft) N-NO 11,3 C 15,1 C 2,5 km/h (1 Bft)
28.08.2013 00:00 15,8 C 75 % 1016,9 hPa 0,0 l/m 4,9 km/h (1 Bft) N-NO 11,4 C 15,8 C 7,1 km/h (2 Bft)
28.08.2013 01:00 15,8 C 75 % 1016,9 hPa 0,0 l/m 3,7 km/h (1 Bft) N-NO 11,4 C 15,8 C 5,9 km/h (2 Bft)
28.08.2013 02:00 15,1 C 79 % 1016,7 hPa 0,0 l/m 3,0 km/h (1 Bft) N-NO 11,5 C 15,1 C 5,2 km/h (1 Bft)
28.08.2013 03:00 14,6 C 82 % 1016,7 hPa 0,0 l/m 2,3 km/h (1 Bft) N-NO 11,6 C 14,6 C 3,9 km/h (1 Bft)
28.08.2013 04:00 13,7 C 86 % 1016,7 hPa 0,0 l/m 1,0 km/h (0 Bft) N 11,4 C 13,7 C 2,1 km/h (1 Bft)
28.08.2013 05:00 13,1 C 88 % 1016,9 hPa 0,0 l/m 1,7 km/h (1 Bft) N-NW 11,2 C 13,1 C 2,9 km/h (1 Bft)
28.08.2013 06:00 12,9 C 89 % 1017,2 hPa 0,0 l/m 2,9 km/h (1 Bft) N 11,1 C 12,9 C 4,1 km/h (1 Bft)
28.08.2013 07:00 13,2 C 89 % 1017,6 hPa 0,0 l/m 3,0 km/h (1 Bft) N 11,4 C 13,2 C 4,7 km/h (1 Bft)
28.08.2013 08:00 14,0 C 88 % 1018,0 hPa 0,0 l/m 3,0 km/h (1 Bft) N-NO 12,1 C 14,0 C 5,7 km/h (2 Bft)
28.08.2013 09:00 15,6 C 87 % 1018,4 hPa 0,0 l/m 6,5 km/h (2 Bft) N-NO 13,5 C 15,3 C 9,8 km/h (2 Bft)
28.08.2013 10:00 16,9 C 85 % 1018,9 hPa 0,0 l/m 6,4 km/h (2 Bft) N-NO 14,4 C 16,8 C 10,6 km/h (2 Bft)
28.08.2013 11:00 19,4 C 78 % 1019,0 hPa 0,0 l/m 8,7 km/h (2 Bft) N-NO 15,3 C 18,4 C 14,1 km/h (3 Bft)
28.08.2013 12:00 21,6 C 67 % 1018,9 hPa 0,0 l/m 10,5 km/h (2 Bft) N 15,1 C 20,2 C 18,2 km/h (3 Bft)
28.08.2013 13:00 23,1 C 53 % 1018,7 hPa 0,0 l/m 9,6 km/h (2 Bft) N 12,8 C 22,2 C 18,0 km/h (3 Bft)
28.08.2013 14:00 22,1 C 57 % 1018,8 hPa 0,0 l/m 11,8 km/h (2 Bft) N-NW 13,2 C 20,6 C 18,0 km/h (3 Bft)
28.08.2013 15:00 21,6 C 54 % 1018,6 hPa 0,0 l/m 12,8 km/h (3 Bft) N-NO 11,8 C 19,8 C 19,6 km/h (3 Bft)
28.08.2013 16:00 21,3 C 57 % 1018,7 hPa 0,0 l/m 5,4 km/h (2 Bft) N-NO 12,4 C 21,2 C 9,0 km/h (2 Bft)
28.08.2013 17:00 21,6 C 57 % 1018,7 hPa 0,0 l/m 2,9 km/h (1 Bft) NO 12,7 C 21,6 C 5,6 km/h (2 Bft)
28.08.2013 18:00 22,7 C 53 % 1018,7 hPa 0,0 l/m 2,5 km/h (1 Bft) N-NW 12,7 C 22,7 C 5,1 km/h (1 Bft)
28.08.2013 19:00 21,3 C 59 % 1018,9 hPa 0,0 l/m 0,0 km/h (0 Bft) N 12,9 C 21,3 C 0,0 km/h (0 Bft)
28.08.2013 20:00 17,0 C 78 % 1019,4 hPa 0,0 l/m 0,0 km/h (0 Bft) N 13,1 C 17,0 C 0,0 km/h (0 Bft)
28.08.2013 21:00 15,6 C 84 % 1019,9 hPa 0,0 l/m 0,1 km/h (0 Bft) N 12,8 C 15,6 C 0,5 km/h (0 Bft)
28.08.2013 22:00 14,1 C 88 % 1020,2 hPa 0,0 l/m 0,0 km/h (0 Bft) N 12,2 C 14,1 C 0,0 km/h (0 Bft)
28.08.2013 23:00 12,1 C 91 % 1020,6 hPa 0,0 l/m 0,0 km/h (0 Bft) N 10,6 C 12,1 C 0,0 km/h (0 Bft)
29.08.2013 00:00 11,1 C 93 % 1020,8 hPa 0,0 l/m 0,0 km/h (0 Bft) N 10,0 C 11,1 C 0,0 km/h (0 Bft)
29.08.2013 01:00 10,4 C 94 % 1020,8 hPa 0,0 l/m 0,0 km/h (0 Bft) N 9,4 C 10,4 C 0,0 km/h (0 Bft)
29.08.2013 02:00 9,6 C 94 % 1020,7 hPa 0,0 l/m 0,0 km/h (0 Bft) N 8,7 C 9,6 C 0,0 km/h (0 Bft)
29.08.2013 03:00 8,4 C 95 % 1020,7 hPa 0,0 l/m 0,0 km/h (0 Bft) N 7,6 C 8,4 C 0,0 km/h (0 Bft)
29.08.2013 04:00 8,5 C 95 % 1020,8 hPa 0,0 l/m 0,0 km/h (0 Bft) N 7,8 C 8,5 C 0,0 km/h (0 Bft)
29.08.2013 05:00 7,3 C 95 % 1020,8 hPa 0,0 l/m 0,0 km/h (0 Bft) N 6,6 C 7,3 C 0,0 km/h (0 Bft)
29.08.2013 06:00 6,8 C 95 % 1021,0 hPa 0,0 l/m 0,0 km/h (0 Bft) N 6,0 C 6,8 C 0,0 km/h (0 Bft)
29.08.2013 07:00 6,9 C 96 % 1021,5 hPa 0,0 l/m 0,0 km/h (0 Bft) N 6,3 C 6,9 C 0,0 km/h (0 Bft)
29.08.2013 08:00 9,8 C 96 % 1021,7 hPa 0,0 l/m 0,0 km/h (0 Bft) N 9,1 C 9,8 C 0,0 km/h (0 Bft)
29.08.2013 09:00 15,6 C 90 % 1021,7 hPa 0,0 l/m 0,7 km/h (0 Bft) S-SW 13,8 C 15,6 C 1,9 km/h (1 Bft)
29.08.2013 10:00 18,9 C 75 % 1021,8 hPa 0,0 l/m 2,0 km/h (1 Bft) S-SW 14,3 C 18,9 C 6,0 km/h (2 Bft)
29.08.2013 11:00 21,1 C 63 % 1021,7 hPa 0,0 l/m 2,4 km/h (1 Bft) S 13,7 C 21,1 C 6,1 km/h (2 Bft)
29.08.2013 12:00 22,6 C 54 % 1021,5 hPa 0,0 l/m 3,0 km/h (1 Bft) W-SW 12,6 C 22,6 C 7,8 km/h (2 Bft)
29.08.2013 13:00 23,5 C 49 % 1021,3 hPa 0,0 l/m 3,7 km/h (1 Bft) S-SO 12,3 C 23,5 C 9,3 km/h (2 Bft)
29.08.2013 14:00 23,9 C 47 % 1021,1 hPa 0,0 l/m 3,7 km/h (1 Bft) W 12,1 C 23,9 C 9,8 km/h (2 Bft)
29.08.2013 15:00 24,3 C 46 % 1020,6 hPa 0,0 l/m 3,5 km/h (1 Bft) W-SW 11,8 C 24,3 C 9,5 km/h (2 Bft)
29.08.2013 16:00 23,9 C 48 % 1020,3 hPa 0,0 l/m 3,2 km/h (1 Bft) W 12,1 C 23,9 C 8,7 km/h (2 Bft)
29.08.2013 17:00 23,7 C 48 % 1020,0 hPa 0,0 l/m 2,0 km/h (1 Bft) W 11,9 C 23,7 C 5,5 km/h (2 Bft)
29.08.2013 18:00 23,1 C 50 % 1019,8 hPa 0,0 l/m 0,5 km/h (0 Bft) W 11,9 C 23,1 C 1,7 km/h (1 Bft)
29.08.2013 19:00 21,6 C 55 % 1019,9 hPa 0,0 l/m 0,0 km/h (0 Bft) N 12,1 C 21,6 C 0,0 km/h (0 Bft)
29.08.2013 20:00 18,7 C 71 % 1020,0 hPa 0,0 l/m 0,0 km/h (0 Bft) N 13,2 C 18,7 C 0,0 km/h (0 Bft)
29.08.2013 21:00 15,9 C 83 % 1020,2 hPa 0,0 l/m 0,0 km/h (0 Bft) N 13,0 C 15,9 C 0,0 km/h (0 Bft)
29.08.2013 22:00 14,3 C 88 % 1020,2 hPa 0,0 l/m 0,0 km/h (0 Bft) N 12,3 C 14,3 C 0,0 km/h (0 Bft)
29.08.2013 23:00 13,3 C 92 % 1020,2 hPa 0,0 l/m 0,0 km/h (0 Bft) N 12,0 C 13,3 C 0,0 km/h (0 Bft)
30.08.2013 00:00 12,8 C 92 % 1020,3 hPa 0,0 l/m 0,0 km/h (0 Bft) N 11,5 C 12,8 C 0,0 km/h (0 Bft)
30.08.2013 01:00 11,3 C 93 % 1020,2 hPa 0,0 l/m 0,0 km/h (0 Bft) N 10,2 C 11,3 C 0,0 km/h (0 Bft)
30.08.2013 02:00 10,8 C 94 % 1020,0 hPa 0,0 l/m 0,0 km/h (0 Bft) N 9,8 C 10,8 C 0,0 km/h (0 Bft)
30.08.2013 03:00 10,1 C 95 % 1019,8 hPa 0,0 l/m 0,0 km/h (0 Bft) N 9,3 C 10,1 C 0,0 km/h (0 Bft)
30.08.2013 04:00 9,2 C 95 % 1019,6 hPa 0,0 l/m 0,0 km/h (0 Bft) N 8,5 C 9,2 C 0,0 km/h (0 Bft)
30.08.2013 05:00 8,5 C 95 % 1019,4 hPa 0,0 l/m 0,0 km/h (0 Bft) N 7,8 C 8,5 C 0,0 km/h (0 Bft)
30.08.2013 06:00 8,1 C 96 % 1019,4 hPa 0,0 l/m 0,0 km/h (0 Bft) N 7,4 C 8,1 C 0,0 km/h (0 Bft)
30.08.2013 07:00 8,9 C 96 % 1019,5 hPa 0,0 l/m 0,0 km/h (0 Bft) N 8,3 C 8,9 C 0,0 km/h (0 Bft)
30.08.2013 08:00 11,7 C 96 % 1019,7 hPa 0,0 l/m 0,0 km/h (0 Bft) N 11,0 C 11,7 C 0,0 km/h (0 Bft)
30.08.2013 09:00 15,8 C 85 % 1019,7 hPa 0,0 l/m 1,9 km/h (1 Bft) S-SW 13,1 C 15,8 C 5,9 km/h (2 Bft)
30.08.2013 10:00 18,9 C 73 % 1019,7 hPa 0,0 l/m 2,5 km/h (1 Bft) S-SW 13,9 C 18,9 C 7,4 km/h (2 Bft)
30.08.2013 11:00 21,2 C 60 % 1019,4 hPa 0,0 l/m 4,4 km/h (1 Bft) SW 13,2 C 21,2 C 11,4 km/h (2 Bft)
30.08.2013 12:00 22,7 C 54 % 1019,0 hPa 0,0 l/m 5,6 km/h (2 Bft) SW 12,9 C 22,7 C 14,9 km/h (3 Bft)
30.08.2013 13:00 22,9 C 52 % 1018,7 hPa 0,0 l/m 5,2 km/h (1 Bft) W-NW 12,7 C 22,9 C 13,6 km/h (3 Bft)
30.08.2013 14:00 23,2 C 51 % 1018,3 hPa 0,0 l/m 4,5 km/h (1 Bft) W 12,5 C 23,2 C 11,9 km/h (2 Bft)
30.08.2013 15:00 23,8 C 48 % 1017,8 hPa 0,0 l/m 4,9 km/h (1 Bft) S-SW 12,1 C 23,8 C 12,2 km/h (2 Bft)
30.08.2013 16:00 23,6 C 49 % 1017,6 hPa 0,0 l/m 4,0 km/h (1 Bft) W 12,3 C 23,6 C 9,9 km/h (2 Bft)
30.08.2013 17:00 23,2 C 50 % 1017,5 hPa 0,0 l/m 2,8 km/h (1 Bft) W 12,3 C 23,2 C 7,6 km/h (2 Bft)
30.08.2013 18:00 22,4 C 53 % 1017,4 hPa 0,0 l/m 1,3 km/h (1 Bft) W-NW 12,3 C 22,4 C 4,7 km/h (1 Bft)
30.08.2013 19:00 21,2 C 59 % 1017,4 hPa 0,0 l/m 0,0 km/h (0 Bft) N 12,7 C 21,2 C 0,1 km/h (0 Bft)
30.08.2013 20:00 18,7 C 70 % 1017,5 hPa 0,0 l/m 0,0 km/h (0 Bft) N 13,1 C 18,7 C 0,0 km/h (0 Bft)
30.08.2013 21:00 17,0 C 80 % 1017,5 hPa 0,0 l/m 0,0 km/h (0 Bft) N 13,4 C 17,0 C 0,0 km/h (0 Bft)
30.08.2013 22:00 15,5 C 85 % 1017,5 hPa 0,0 l/m 0,0 km/h (0 Bft) N 12,9 C 15,5 C 0,0 km/h (0 Bft)
30.08.2013 23:00 13,8 C 89 % 1017,5 hPa 0,0 l/m 0,0 km/h (0 Bft) N 12,1 C 13,8 C 0,0 km/h (0 Bft)
31.08.2013 00:00 13,1 C 90 % 1017,5 hPa 0,0 l/m 0,0 km/h (0 Bft) N 11,5 C 13,1 C 0,0 km/h (0 Bft)
31.08.2013 01:00 12,4 C 91 % 1017,6 hPa 0,0 l/m 0,0 km/h (0 Bft) N 11,1 C 12,4 C 0,0 km/h (0 Bft)
31.08.2013 02:00 11,7 C 92 % 1017,6 hPa 0,0 l/m 0,0 km/h (0 Bft) N 10,4 C 11,7 C 0,0 km/h (0 Bft)
31.08.2013 03:00 11,3 C 93 % 1017,6 hPa 0,0 l/m 0,0 km/h (0 Bft) N 10,2 C 11,3 C 0,0 km/h (0 Bft)
31.08.2013 04:00 10,8 C 92 % 1017,5 hPa 0,0 l/m 0,0 km/h (0 Bft) N 9,5 C 10,8 C 0,0 km/h (0 Bft)
31.08.2013 05:00 10,4 C 92 % 1017,4 hPa 0,0 l/m 0,0 km/h (0 Bft) N 9,2 C 10,4 C 0,0 km/h (0 Bft)
31.08.2013 06:00 10,0 C 93 % 1017,4 hPa 0,0 l/m 0,0 km/h (0 Bft) N 8,9 C 10,0 C 0,0 km/h (0 Bft)
31.08.2013 07:00 10,7 C 93 % 1017,4 hPa 0,0 l/m 0,0 km/h (0 Bft) N 9,6 C 10,7 C 0,0 km/h (0 Bft)
31.08.2013 08:00 14,2 C 87 % 1017,4 hPa 0,0 l/m 1,7 km/h (1 Bft) S-SW 12,0 C 14,2 C 3,9 km/h (1 Bft)
31.08.2013 09:00 17,9 C 79 % 1017,5 hPa 0,0 l/m 5,1 km/h (1 Bft) SW 14,1 C 17,8 C 13,2 km/h (3 Bft)
31.08.2013 10:00 18,7 C 77 % 1017,5 hPa 0,0 l/m 5,9 km/h (2 Bft) W 14,6 C 18,7 C 14,1 km/h (3 Bft)
31.08.2013 11:00 19,4 C 76 % 1017,4 hPa 0,0 l/m 6,7 km/h (2 Bft) SW 15,0 C 19,2 C 17,2 km/h (3 Bft)
31.08.2013 12:00 19,8 C 74 % 1017,2 hPa 0,0 l/m 6,9 km/h (2 Bft) SW 15,0 C 19,5 C 15,8 km/h (3 Bft)
31.08.2013 13:00 20,5 C 71 % 1017,1 hPa 0,0 l/m 6,3 km/h (2 Bft) SW 15,0 C 20,4 C 18,0 km/h (3 Bft)
31.08.2013 14:00 18,8 C 81 % 1017,3 hPa 0,8 l/m 4,9 km/h (1 Bft) W 15,4 C 18,8 C 13,2 km/h (3 Bft)
31.08.2013 15:00 17,0 C 91 % 1017,5 hPa 1,0 l/m 3,8 km/h (1 Bft) SW 15,5 C 17,0 C 10,2 km/h (2 Bft)
31.08.2013 16:00 17,5 C 91 % 1017,6 hPa 0,0 l/m 3,0 km/h (1 Bft) W 16,1 C 17,5 C 7,6 km/h (2 Bft)
31.08.2013 17:00 17,2 C 89 % 1018,1 hPa 0,8 l/m 4,7 km/h (1 Bft) NW 15,4 C 17,0 C 11,2 km/h (2 Bft)
31.08.2013 18:00 16,8 C 90 % 1018,4 hPa 0,0 l/m 2,5 km/h (1 Bft) W-NW 15,2 C 16,8 C 6,7 km/h (2 Bft)
31.08.2013 19:00 16,4 C 86 % 1018,9 hPa 0,0 l/m 4,9 km/h (1 Bft) W-NW 14,0 C 16,4 C 10,6 km/h (2 Bft)
31.08.2013 20:00 14,7 C 85 % 1019,8 hPa 0,0 l/m 2,1 km/h (1 Bft) W-SW 12,2 C 14,7 C 6,0 km/h (2 Bft)
31.08.2013 21:00 13,1 C 83 % 1020,7 hPa 0,0 l/m 2,6 km/h (1 Bft) W-NW 10,4 C 13,1 C 7,5 km/h (2 Bft)
31.08.2013 22:00 11,8 C 86 % 1021,2 hPa 0,0 l/m 1,1 km/h (0 Bft) SW 9,5 C 11,8 C 4,0 km/h (1 Bft)
31.08.2013 23:00 10,6 C 86 % 1021,7 hPa 0,0 l/m 1,1 km/h (0 Bft) S-SW 8,5 C 10,6 C 3,5 km/h (1 Bft)
01.09.2013 00:00 10,1 C 87 % 1021,9 hPa 0,0 l/m 1,6 km/h (1 Bft) W-SW 8,0 C 10,1 C 5,1 km/h (1 Bft)
01.09.2013 01:00 10,0 C 87 % 1022,3 hPa 0,0 l/m 1,4 km/h (1 Bft) W-SW 8,0 C 10,0 C 3,9 km/h (1 Bft)
01.09.2013 02:00 9,4 C 89 % 1022,6 hPa 0,0 l/m 1,4 km/h (1 Bft) S-SW 7,6 C 9,4 C 4,9 km/h (1 Bft)
01.09.2013 03:00 8,9 C 89 % 1022,7 hPa 0,0 l/m 1,0 km/h (0 Bft) S-SW 7,2 C 8,9 C 3,3 km/h (1 Bft)
01.09.2013 04:00 8,4 C 90 % 1022,5 hPa 0,0 l/m 1,5 km/h (1 Bft) SW 6,9 C 8,4 C 4,7 km/h (1 Bft)
01.09.2013 05:00 8,7 C 90 % 1022,6 hPa 0,0 l/m 1,5 km/h (1 Bft) SW 7,2 C 8,7 C 3,9 km/h (1 Bft)
01.09.2013 06:00 9,0 C 90 % 1022,6 hPa 0,0 l/m 1,6 km/h (1 Bft) S-SW 7,5 C 9,0 C 4,5 km/h (1 Bft)
01.09.2013 07:00 9,2 C 90 % 1022,9 hPa 0,0 l/m 2,1 km/h (1 Bft) S-SW 7,6 C 9,2 C 6,0 km/h (2 Bft)
01.09.2013 08:00 10,8 C 87 % 1023,3 hPa 0,0 l/m 2,8 km/h (1 Bft) SW 8,6 C 10,8 C 8,2 km/h (2 Bft)
01.09.2013 09:00 12,9 C 82 % 1023,5 hPa 0,0 l/m 3,0 km/h (1 Bft) W-SW 9,9 C 12,9 C 8,6 km/h (2 Bft)
01.09.2013 10:00 14,6 C 76 % 1023,5 hPa 0,0 l/m 5,0 km/h (1 Bft) S-SW 10,5 C 14,6 C 12,4 km/h (2 Bft)
01.09.2013 11:00 15,8 C 71 % 1023,3 hPa 0,0 l/m 6,9 km/h (2 Bft) W-NW 10,4 C 15,4 C 16,6 km/h (3 Bft)
01.09.2013 12:00 16,9 C 62 % 1023,1 hPa 0,0 l/m 5,8 km/h (2 Bft) W-NW 9,6 C 16,9 C 16,1 km/h (3 Bft)
01.09.2013 13:00 17,3 C 58 % 1023,0 hPa 0,0 l/m 6,5 km/h (2 Bft) W-SW 8,8 C 17,1 C 16,6 km/h (3 Bft)
01.09.2013 14:00 16,7 C 61 % 1023,0 hPa 0,0 l/m 7,9 km/h (2 Bft) W-SW 9,2 C 16,0 C 16,8 km/h (3 Bft)
01.09.2013 15:00 17,4 C 61 % 1022,7 hPa 0,0 l/m 7,1 km/h (2 Bft) W 9,8 C 16,8 C 18,0 km/h (3 Bft)
01.09.2013 16:00 17,5 C 62 % 1022,4 hPa 0,0 l/m 5,8 km/h (2 Bft) W-SW 10,1 C 17,3 C 16,2 km/h (3 Bft)
01.09.2013 17:00 17,5 C 62 % 1021,7 hPa 0,0 l/m 5,3 km/h (1 Bft) W-NW 10,2 C 17,1 C 15,1 km/h (3 Bft)
01.09.2013 18:00 16,9 C 63 % 1021,5 hPa 0,0 l/m 5,8 km/h (2 Bft) W-SW 9,8 C 16,8 C 14,9 km/h (3 Bft)
01.09.2013 19:00 16,3 C 62 % 1021,4 hPa 0,0 l/m 5,5 km/h (2 Bft) SW 9,0 C 16,2 C 15,2 km/h (3 Bft)
01.09.2013 20:00 15,6 C 65 % 1021,6 hPa 0,0 l/m 4,3 km/h (1 Bft) SW 9,1 C 15,6 C 11,5 km/h (2 Bft)
01.09.2013 21:00 15,1 C 68 % 1021,6 hPa 0,0 l/m 4,8 km/h (1 Bft) W 9,2 C 15,1 C 12,8 km/h (3 Bft)
01.09.2013 22:00 14,7 C 71 % 1021,5 hPa 0,0 l/m 4,9 km/h (1 Bft) W-SW 9,5 C 14,6 C 12,1 km/h (2 Bft)
01.09.2013 23:00 14,3 C 74 % 1021,4 hPa 0,0 l/m 4,8 km/h (1 Bft) S-SW 9,7 C 14,3 C 12,0 km/h (2 Bft)
Min-Datum _ 29.08.13 26.08.13 27.08.13 - 26.08.13 - 29.08.13 29.08.13 26.08.13
_ Min-Zeit 06:35 15:40 18:20 - 23:25 - 06:35 06:35 23:30
Minimum _ 6,3 C 37 % 1015,9 hPa - 0,0 km/h (0 Bft) - 5,6 C 6,3 C 0,0 km/h (0 Bft)
Max-Datum _ 29.08.13 29.08.13 01.09.13 31.08.13 28.08.13 - 31.08.13 29.08.13 26.08.13
_ Max-Zeit 15:20 04:15 10:00 15:05 14:05 - 16:30 15:20 11:55
Maximum _ 24,7 C 96 % 1023,6 hPa 1,0 l/m 18,0 km/h
N-NW (3 Bft)
- 16,3 C 24,7 C 32,2 km/h
O-NO (5 Bft)
Durchschnitt _ 15,9 C 74 % 1019,1 hPa #2,6 l/m 3,6 km/h (1 Bft) NO 10,8 C 15,7 C 7,7 km/h (2 Bft)